sensor_id;sensor_type;location;lat;lon;timestamp;temperature;humidity
8332;DHT22;4203;48.144;14.118;2023-02-16T00:01:20;-1.20;99.90
8332;DHT22;4203;48.144;14.118;2023-02-16T00:03:47;-1.20;99.90
8332;DHT22;4203;48.144;14.118;2023-02-16T00:06:16;-1.30;99.90
8332;DHT22;4203;48.144;14.118;2023-02-16T00:08:44;-1.20;99.90
8332;DHT22;4203;48.144;14.118;2023-02-16T00:11:16;-1.20;99.90
8332;DHT22;4203;48.144;14.118;2023-02-16T00:14:01;-1.20;99.90
8332;DHT22;4203;48.144;14.118;2023-02-16T00:16:29;-1.20;99.90
8332;DHT22;4203;48.144;14.118;2023-02-16T00:18:56;-1.30;99.90
8332;DHT22;4203;48.144;14.118;2023-02-16T00:21:25;-1.30;99.90
8332;DHT22;4203;48.144;14.118;2023-02-16T00:23:52;-1.30;99.90
8332;DHT22;4203;48.144;14.118;2023-02-16T00:26:21;-1.20;99.90
8332;DHT22;4203;48.144;14.118;2023-02-16T00:28:49;-1.20;99.90
8332;DHT22;4203;48.144;14.118;2023-02-16T00:31:18;-1.20;99.90
8332;DHT22;4203;48.144;14.118;2023-02-16T00:33:46;-1.20;99.90
8332;DHT22;4203;48.144;14.118;2023-02-16T00:36:14;-1.30;99.90
8332;DHT22;4203;48.144;14.118;2023-02-16T00:38:42;-1.30;99.90
8332;DHT22;4203;48.144;14.118;2023-02-16T00:41:18;-1.30;99.90
8332;DHT22;4203;48.144;14.118;2023-02-16T00:44:04;-1.30;99.90
8332;DHT22;4203;48.144;14.118;2023-02-16T00:46:31;-1.30;99.90
8332;DHT22;4203;48.144;14.118;2023-02-16T00:48:59;-1.30;99.90
8332;DHT22;4203;48.144;14.118;2023-02-16T00:51:26;-1.30;99.90
8332;DHT22;4203;48.144;14.118;2023-02-16T00:53:54;-1.30;99.90
8332;DHT22;4203;48.144;14.118;2023-02-16T00:56:22;-1.30;99.90
8332;DHT22;4203;48.144;14.118;2023-02-16T00:58:51;-1.30;99.90
8332;DHT22;4203;48.144;14.118;2023-02-16T01:01:22;-1.40;99.90
8332;DHT22;4203;48.144;14.118;2023-02-16T01:03:50;-1.40;99.90
8332;DHT22;4203;48.144;14.118;2023-02-16T01:06:17;-1.40;99.90
8332;DHT22;4203;48.144;14.118;2023-02-16T01:09:11;-1.40;99.90
8332;DHT22;4203;48.144;14.118;2023-02-16T01:11:56;-1.40;99.90
8332;DHT22;4203;48.144;14.118;2023-02-16T01:14:24;-1.40;99.90
8332;DHT22;4203;48.144;14.118;2023-02-16T01:16:51;-1.40;99.90
8332;DHT22;4203;48.144;14.118;2023-02-16T01:19:18;-1.40;99.90
8332;DHT22;4203;48.144;14.118;2023-02-16T01:21:46;-1.40;99.90
8332;DHT22;4203;48.144;14.118;2023-02-16T01:24:14;-1.50;99.90
8332;DHT22;4203;48.144;14.118;2023-02-16T01:26:45;-1.50;99.90
8332;DHT22;4203;48.144;14.118;2023-02-16T01:29:15;-1.50;99.90
8332;DHT22;4203;48.144;14.118;2023-02-16T01:31:43;-1.50;99.90
8332;DHT22;4203;48.144;14.118;2023-02-16T01:34:11;-1.60;99.90
8332;DHT22;4203;48.144;14.118;2023-02-16T01:36:41;-1.60;99.90
8332;DHT22;4203;48.144;14.118;2023-02-16T01:39:11;-1.60;99.90
8332;DHT22;4203;48.144;14.118;2023-02-16T01:42:08;-1.60;99.90
8332;DHT22;4203;48.144;14.118;2023-02-16T01:44:41;-1.60;99.90
8332;DHT22;4203;48.144;14.118;2023-02-16T01:47:18;-1.60;99.90
8332;DHT22;4203;48.144;14.118;2023-02-16T01:49:50;-1.60;99.90
8332;DHT22;4203;48.144;14.118;2023-02-16T01:52:24;-1.60;99.90
8332;DHT22;4203;48.144;14.118;2023-02-16T01:54:55;-1.50;99.90
8332;DHT22;4203;48.144;14.118;2023-02-16T01:57:36;-1.50;99.90
8332;DHT22;4203;48.144;14.118;2023-02-16T02:00:12;-1.50;99.90
8332;DHT22;4203;48.144;14.118;2023-02-16T02:02:42;-1.50;99.90
8332;DHT22;4203;48.144;14.118;2023-02-16T02:05:23;-1.60;99.90
8332;DHT22;4203;48.144;14.118;2023-02-16T02:08:21;-1.60;99.90
8332;DHT22;4203;48.144;14.118;2023-02-16T02:10:58;-1.60;99.90
8332;DHT22;4203;48.144;14.118;2023-02-16T02:13:33;-1.60;99.90
8332;DHT22;4203;48.144;14.118;2023-02-16T02:16:03;-1.50;99.90
8332;DHT22;4203;48.144;14.118;2023-02-16T02:18:31;-1.50;99.90
8332;DHT22;4203;48.144;14.118;2023-02-16T02:21:27;-1.50;99.90
8332;DHT22;4203;48.144;14.118;2023-02-16T02:24:37;-1.50;99.90
8332;DHT22;4203;48.144;14.118;2023-02-16T02:27:17;-1.50;99.90
8332;DHT22;4203;48.144;14.118;2023-02-16T02:30:11;-1.60;99.90
8332;DHT22;4203;48.144;14.118;2023-02-16T02:32:53;-1.60;99.90
8332;DHT22;4203;48.144;14.118;2023-02-16T02:35:34;-1.60;99.90
8332;DHT22;4203;48.144;14.118;2023-02-16T02:38:09;-1.60;99.90
8332;DHT22;4203;48.144;14.118;2023-02-16T02:40:47;-1.60;99.90
8332;DHT22;4203;48.144;14.118;2023-02-16T02:43:20;-1.70;99.90
8332;DHT22;4203;48.144;14.118;2023-02-16T02:45:52;-1.70;99.90
8332;DHT22;4203;48.144;14.118;2023-02-16T02:48:20;-1.90;99.90
8332;DHT22;4203;48.144;14.118;2023-02-16T02:50:50;-1.80;99.90
8332;DHT22;4203;48.144;14.118;2023-02-16T02:53:39;-1.90;99.90
8332;DHT22;4203;48.144;14.118;2023-02-16T02:56:08;-1.90;99.90
8332;DHT22;4203;48.144;14.118;2023-02-16T02:58:58;-1.90;99.90
8332;DHT22;4203;48.144;14.118;2023-02-16T03:01:49;-1.90;99.90
8332;DHT22;4203;48.144;14.118;2023-02-16T03:04:19;-1.90;99.90
8332;DHT22;4203;48.144;14.118;2023-02-16T03:06:52;-2.00;99.90
8332;DHT22;4203;48.144;14.118;2023-02-16T03:09:21;-2.00;99.90
8332;DHT22;4203;48.144;14.118;2023-02-16T03:11:49;-2.00;99.90
8332;DHT22;4203;48.144;14.118;2023-02-16T03:14:40;-2.00;99.90
8332;DHT22;4203;48.144;14.118;2023-02-16T03:17:10;-2.00;99.90
8332;DHT22;4203;48.144;14.118;2023-02-16T03:19:57;-2.00;99.90
8332;DHT22;4203;48.144;14.118;2023-02-16T03:22:43;-2.10;99.90
8332;DHT22;4203;48.144;14.118;2023-02-16T03:25:31;-2.20;99.90
8332;DHT22;4203;48.144;14.118;2023-02-16T03:28:17;-2.20;99.90
8332;DHT22;4203;48.144;14.118;2023-02-16T03:31:05;-2.30;99.90
8332;DHT22;4203;48.144;14.118;2023-02-16T03:33:34;-2.20;99.90
8332;DHT22;4203;48.144;14.118;2023-02-16T03:36:03;-2.10;99.90
8332;DHT22;4203;48.144;14.118;2023-02-16T03:38:30;-2.10;99.90
8332;DHT22;4203;48.144;14.118;2023-02-16T03:40:58;-2.10;99.90
8332;DHT22;4203;48.144;14.118;2023-02-16T03:43:26;-2.10;99.90
8332;DHT22;4203;48.144;14.118;2023-02-16T03:45:53;-2.00;99.90
8332;DHT22;4203;48.144;14.118;2023-02-16T03:48:22;-2.00;99.90
8332;DHT22;4203;48.144;14.118;2023-02-16T03:50:49;-1.90;99.90
8332;DHT22;4203;48.144;14.118;2023-02-16T03:53:16;-1.90;99.90
8332;DHT22;4203;48.144;14.118;2023-02-16T03:55:46;-1.90;99.90
8332;DHT22;4203;48.144;14.118;2023-02-16T03:58:15;-1.90;99.90
8332;DHT22;4203;48.144;14.118;2023-02-16T04:00:43;-1.80;99.90
8332;DHT22;4203;48.144;14.118;2023-02-16T04:03:10;-1.90;99.90
8332;DHT22;4203;48.144;14.118;2023-02-16T04:05:39;-1.80;99.90
8332;DHT22;4203;48.144;14.118;2023-02-16T04:08:08;-1.90;99.90
8332;DHT22;4203;48.144;14.118;2023-02-16T04:10:37;-1.90;99.90
8332;DHT22;4203;48.144;14.118;2023-02-16T04:13:04;-1.90;99.90
8332;DHT22;4203;48.144;14.118;2023-02-16T04:15:31;-1.80;99.90
8332;DHT22;4203;48.144;14.118;2023-02-16T04:17:58;-1.80;99.90
8332;DHT22;4203;48.144;14.118;2023-02-16T04:20:28;-1.90;99.90
8332;DHT22;4203;48.144;14.118;2023-02-16T04:22:56;-2.00;99.90
8332;DHT22;4203;48.144;14.118;2023-02-16T04:25:24;-2.00;99.90
8332;DHT22;4203;48.144;14.118;2023-02-16T04:27:52;-1.90;99.90
8332;DHT22;4203;48.144;14.118;2023-02-16T04:30:21;-1.90;99.90
8332;DHT22;4203;48.144;14.118;2023-02-16T04:32:49;-1.90;99.90
8332;DHT22;4203;48.144;14.118;2023-02-16T04:35:17;-2.00;99.90
8332;DHT22;4203;48.144;14.118;2023-02-16T04:37:44;-2.10;99.90
8332;DHT22;4203;48.144;14.118;2023-02-16T04:40:15;-2.10;99.90
8332;DHT22;4203;48.144;14.118;2023-02-16T04:42:43;-2.10;99.90
8332;DHT22;4203;48.144;14.118;2023-02-16T04:45:11;-2.10;99.90
8332;DHT22;4203;48.144;14.118;2023-02-16T04:47:38;-2.20;99.90
8332;DHT22;4203;48.144;14.118;2023-02-16T04:50:06;-2.20;99.90
8332;DHT22;4203;48.144;14.118;2023-02-16T04:52:34;-2.20;99.90
8332;DHT22;4203;48.144;14.118;2023-02-16T04:55:01;-2.20;99.90
8332;DHT22;4203;48.144;14.118;2023-02-16T04:57:30;-2.20;99.90
8332;DHT22;4203;48.144;14.118;2023-02-16T04:59:57;-2.20;99.90
8332;DHT22;4203;48.144;14.118;2023-02-16T05:02:24;-2.10;99.90
8332;DHT22;4203;48.144;14.118;2023-02-16T05:04:51;-2.10;99.90
8332;DHT22;4203;48.144;14.118;2023-02-16T05:07:18;-2.10;99.90
8332;DHT22;4203;48.144;14.118;2023-02-16T05:09:45;-2.20;99.90
8332;DHT22;4203;48.144;14.118;2023-02-16T05:12:12;-2.30;99.90
8332;DHT22;4203;48.144;14.118;2023-02-16T05:14:59;-2.30;99.90
8332;DHT22;4203;48.144;14.118;2023-02-16T05:17:26;-2.30;99.90
8332;DHT22;4203;48.144;14.118;2023-02-16T05:19:55;-2.40;99.90
8332;DHT22;4203;48.144;14.118;2023-02-16T05:22:23;-2.30;99.90
8332;DHT22;4203;48.144;14.118;2023-02-16T05:24:51;-2.30;99.90
8332;DHT22;4203;48.144;14.118;2023-02-16T05:27:20;-2.30;99.90
8332;DHT22;4203;48.144;14.118;2023-02-16T05:29:47;-2.20;99.90
8332;DHT22;4203;48.144;14.118;2023-02-16T05:32:17;-2.20;99.90
8332;DHT22;4203;48.144;14.118;2023-02-16T05:34:44;-2.20;99.90
8332;DHT22;4203;48.144;14.118;2023-02-16T05:37:12;-2.20;99.90
8332;DHT22;4203;48.144;14.118;2023-02-16T05:39:40;-2.20;99.90
8332;DHT22;4203;48.144;14.118;2023-02-16T05:42:08;-2.20;99.90
8332;DHT22;4203;48.144;14.118;2023-02-16T05:44:36;-2.20;99.90
8332;DHT22;4203;48.144;14.118;2023-02-16T05:47:03;-2.20;99.90
8332;DHT22;4203;48.144;14.118;2023-02-16T05:49:32;-2.20;99.90
8332;DHT22;4203;48.144;14.118;2023-02-16T05:51:59;-2.30;99.90
8332;DHT22;4203;48.144;14.118;2023-02-16T05:54:26;-2.20;99.90
8332;DHT22;4203;48.144;14.118;2023-02-16T05:56:54;-2.30;99.90
8332;DHT22;4203;48.144;14.118;2023-02-16T05:59:21;-2.20;99.90
8332;DHT22;4203;48.144;14.118;2023-02-16T06:01:49;-2.20;99.90
8332;DHT22;4203;48.144;14.118;2023-02-16T06:04:16;-2.10;99.90
8332;DHT22;4203;48.144;14.118;2023-02-16T06:06:45;-2.10;99.90
8332;DHT22;4203;48.144;14.118;2023-02-16T06:09:12;-2.10;99.90
8332;DHT22;4203;48.144;14.118;2023-02-16T06:11:40;-2.10;99.90
8332;DHT22;4203;48.144;14.118;2023-02-16T06:14:09;-2.10;99.90
8332;DHT22;4203;48.144;14.118;2023-02-16T06:16:38;-2.20;99.90
8332;DHT22;4203;48.144;14.118;2023-02-16T06:19:06;-2.20;99.90
8332;DHT22;4203;48.144;14.118;2023-02-16T06:21:35;-2.20;99.90
8332;DHT22;4203;48.144;14.118;2023-02-16T06:24:04;-2.20;99.90
8332;DHT22;4203;48.144;14.118;2023-02-16T06:26:32;-2.20;99.90
8332;DHT22;4203;48.144;14.118;2023-02-16T06:29:00;-2.20;99.90
8332;DHT22;4203;48.144;14.118;2023-02-16T06:31:27;-2.30;99.90
8332;DHT22;4203;48.144;14.118;2023-02-16T06:33:55;-2.40;99.90
8332;DHT22;4203;48.144;14.118;2023-02-16T06:36:23;-2.30;99.90
8332;DHT22;4203;48.144;14.118;2023-02-16T06:38:51;-2.40;99.90
8332;DHT22;4203;48.144;14.118;2023-02-16T06:41:19;-2.40;99.90
8332;DHT22;4203;48.144;14.118;2023-02-16T06:43:59;-2.40;99.90
8332;DHT22;4203;48.144;14.118;2023-02-16T06:46:27;-2.30;99.90
8332;DHT22;4203;48.144;14.118;2023-02-16T06:48:54;-2.30;99.90
8332;DHT22;4203;48.144;14.118;2023-02-16T06:51:22;-2.30;99.90
8332;DHT22;4203;48.144;14.118;2023-02-16T06:53:50;-2.30;99.90
8332;DHT22;4203;48.144;14.118;2023-02-16T06:56:19;-2.40;99.90
8332;DHT22;4203;48.144;14.118;2023-02-16T06:58:46;-2.40;99.90
8332;DHT22;4203;48.144;14.118;2023-02-16T07:01:13;-2.30;99.90
8332;DHT22;4203;48.144;14.118;2023-02-16T07:03:41;-2.20;99.90
8332;DHT22;4203;48.144;14.118;2023-02-16T07:06:08;-2.20;99.90
8332;DHT22;4203;48.144;14.118;2023-02-16T07:08:35;-2.10;99.90
8332;DHT22;4203;48.144;14.118;2023-02-16T07:11:03;-2.00;99.90
8332;DHT22;4203;48.144;14.118;2023-02-16T07:13:31;-2.00;99.90
8332;DHT22;4203;48.144;14.118;2023-02-16T07:16:01;-1.90;99.90
8332;DHT22;4203;48.144;14.118;2023-02-16T07:18:28;-1.90;99.90
8332;DHT22;4203;48.144;14.118;2023-02-16T07:20:55;-1.80;99.90
8332;DHT22;4203;48.144;14.118;2023-02-16T07:23:23;-1.80;99.90
8332;DHT22;4203;48.144;14.118;2023-02-16T07:25:50;-1.80;99.90
8332;DHT22;4203;48.144;14.118;2023-02-16T07:28:17;-1.80;99.90
8332;DHT22;4203;48.144;14.118;2023-02-16T07:30:47;-1.80;99.90
8332;DHT22;4203;48.144;14.118;2023-02-16T07:33:14;-1.90;99.90
8332;DHT22;4203;48.144;14.118;2023-02-16T07:35:42;-1.80;99.90
8332;DHT22;4203;48.144;14.118;2023-02-16T07:38:11;-1.70;99.90
8332;DHT22;4203;48.144;14.118;2023-02-16T07:40:38;-1.70;99.90
8332;DHT22;4203;48.144;14.118;2023-02-16T07:43:06;-1.60;99.90
8332;DHT22;4203;48.144;14.118;2023-02-16T07:45:33;-1.50;99.90
8332;DHT22;4203;48.144;14.118;2023-02-16T07:48:02;-1.50;99.90
8332;DHT22;4203;48.144;14.118;2023-02-16T07:50:29;-1.60;99.90
8332;DHT22;4203;48.144;14.118;2023-02-16T07:52:57;-1.50;99.90
8332;DHT22;4203;48.144;14.118;2023-02-16T07:55:26;-1.50;99.90
8332;DHT22;4203;48.144;14.118;2023-02-16T07:57:53;-1.40;99.90
8332;DHT22;4203;48.144;14.118;2023-02-16T08:00:22;-1.50;99.90
8332;DHT22;4203;48.144;14.118;2023-02-16T08:02:49;-1.40;99.90
8332;DHT22;4203;48.144;14.118;2023-02-16T08:05:18;-1.40;99.90
8332;DHT22;4203;48.144;14.118;2023-02-16T08:07:45;-1.40;99.90
8332;DHT22;4203;48.144;14.118;2023-02-16T08:10:13;-1.30;99.90
8332;DHT22;4203;48.144;14.118;2023-02-16T08:12:40;-1.40;99.90
8332;DHT22;4203;48.144;14.118;2023-02-16T08:15:08;-1.40;99.90
8332;DHT22;4203;48.144;14.118;2023-02-16T08:17:36;-1.30;99.90
8332;DHT22;4203;48.144;14.118;2023-02-16T08:20:04;-1.20;99.90
8332;DHT22;4203;48.144;14.118;2023-02-16T08:22:33;-1.20;99.90
8332;DHT22;4203;48.144;14.118;2023-02-16T08:25:01;-1.10;99.90
8332;DHT22;4203;48.144;14.118;2023-02-16T08:27:30;-1.10;99.90
8332;DHT22;4203;48.144;14.118;2023-02-16T08:29:57;-1.00;99.90
8332;DHT22;4203;48.144;14.118;2023-02-16T08:32:24;-1.00;99.90
8332;DHT22;4203;48.144;14.118;2023-02-16T08:34:51;-1.00;99.90
8332;DHT22;4203;48.144;14.118;2023-02-16T08:37:18;-1.10;99.90
8332;DHT22;4203;48.144;14.118;2023-02-16T08:39:47;-1.20;99.90
8332;DHT22;4203;48.144;14.118;2023-02-16T08:42:15;-1.10;99.90
8332;DHT22;4203;48.144;14.118;2023-02-16T08:44:42;-1.00;99.90
8332;DHT22;4203;48.144;14.118;2023-02-16T08:47:09;-1.10;99.90
8332;DHT22;4203;48.144;14.118;2023-02-16T08:49:36;-1.10;99.90
8332;DHT22;4203;48.144;14.118;2023-02-16T08:52:04;-1.00;99.90
8332;DHT22;4203;48.144;14.118;2023-02-16T08:54:31;-0.90;99.90
8332;DHT22;4203;48.144;14.118;2023-02-16T08:57:00;-0.90;99.90
8332;DHT22;4203;48.144;14.118;2023-02-16T08:59:29;-0.90;99.90
8332;DHT22;4203;48.144;14.118;2023-02-16T09:01:56;-0.80;99.90
8332;DHT22;4203;48.144;14.118;2023-02-16T09:04:23;-0.90;99.90
8332;DHT22;4203;48.144;14.118;2023-02-16T09:06:54;-0.80;99.90
8332;DHT22;4203;48.144;14.118;2023-02-16T09:09:22;-0.70;99.90
8332;DHT22;4203;48.144;14.118;2023-02-16T09:11:51;-0.70;99.90
8332;DHT22;4203;48.144;14.118;2023-02-16T09:14:20;-0.70;99.90
8332;DHT22;4203;48.144;14.118;2023-02-16T09:16:47;-0.60;99.90
8332;DHT22;4203;48.144;14.118;2023-02-16T09:19:17;-2.20;99.90
8332;DHT22;4203;48.144;14.118;2023-02-16T09:21:45;-0.50;99.90
8332;DHT22;4203;48.144;14.118;2023-02-16T09:24:15;-0.40;99.90
8332;DHT22;4203;48.144;14.118;2023-02-16T09:26:42;-0.30;99.90
8332;DHT22;4203;48.144;14.118;2023-02-16T09:29:11;-0.40;99.90
8332;DHT22;4203;48.144;14.118;2023-02-16T09:31:40;-0.50;99.90
8332;DHT22;4203;48.144;14.118;2023-02-16T09:34:14;-0.50;99.90
8332;DHT22;4203;48.144;14.118;2023-02-16T09:36:42;-0.40;99.90
8332;DHT22;4203;48.144;14.118;2023-02-16T09:39:10;-0.40;99.90
8332;DHT22;4203;48.144;14.118;2023-02-16T09:44:40;-0.30;99.90
8332;DHT22;4203;48.144;14.118;2023-02-16T09:47:20;-0.10;99.90
8332;DHT22;4203;48.144;14.118;2023-02-16T09:49:49;-0.10;99.90
8332;DHT22;4203;48.144;14.118;2023-02-16T09:52:22;0.00;99.90
8332;DHT22;4203;48.144;14.118;2023-02-16T09:54:53;0.20;99.90
8332;DHT22;4203;48.144;14.118;2023-02-16T09:57:34;0.40;99.90
8332;DHT22;4203;48.144;14.118;2023-02-16T10:00:09;0.50;99.90
8332;DHT22;4203;48.144;14.118;2023-02-16T10:02:45;0.70;99.90
8332;DHT22;4203;48.144;14.118;2023-02-16T10:05:19;0.70;99.90
8332;DHT22;4203;48.144;14.118;2023-02-16T10:08:02;0.80;99.90
8332;DHT22;4203;48.144;14.118;2023-02-16T10:10:36;1.00;99.90
8332;DHT22;4203;48.144;14.118;2023-02-16T10:13:14;0.90;99.90
8332;DHT22;4203;48.144;14.118;2023-02-16T10:15:44;1.00;99.90
8332;DHT22;4203;48.144;14.118;2023-02-16T10:18:30;1.10;99.90
8332;DHT22;4203;48.144;14.118;2023-02-16T10:21:01;1.10;99.90
8332;DHT22;4203;48.144;14.118;2023-02-16T10:23:40;1.20;99.90
8332;DHT22;4203;48.144;14.118;2023-02-16T10:26:15;1.40;99.90
8332;DHT22;4203;48.144;14.118;2023-02-16T10:28:47;1.50;99.90
8332;DHT22;4203;48.144;14.118;2023-02-16T10:31:22;1.60;99.90
8332;DHT22;4203;48.144;14.118;2023-02-16T10:34:04;1.70;99.90
8332;DHT22;4203;48.144;14.118;2023-02-16T10:36:45;1.80;99.90
8332;DHT22;4203;48.144;14.118;2023-02-16T10:39:21;1.90;99.90
8332;DHT22;4203;48.144;14.118;2023-02-16T10:41:57;1.90;99.90
8332;DHT22;4203;48.144;14.118;2023-02-16T10:44:32;2.00;99.90
8332;DHT22;4203;48.144;14.118;2023-02-16T10:47:03;1.90;99.90
8332;DHT22;4203;48.144;14.118;2023-02-16T10:49:34;2.00;99.90
8332;DHT22;4203;48.144;14.118;2023-02-16T10:52:02;2.00;99.90
8332;DHT22;4203;48.144;14.118;2023-02-16T10:54:32;2.10;99.90
8332;DHT22;4203;48.144;14.118;2023-02-16T10:57:00;2.20;99.90
8332;DHT22;4203;48.144;14.118;2023-02-16T10:59:35;2.30;99.90
8332;DHT22;4203;48.144;14.118;2023-02-16T11:02:17;2.30;99.90
8332;DHT22;4203;48.144;14.118;2023-02-16T11:04:47;2.30;99.90
8332;DHT22;4203;48.144;14.118;2023-02-16T11:07:19;2.20;99.90
8332;DHT22;4203;48.144;14.118;2023-02-16T11:09:48;2.00;99.90
8332;DHT22;4203;48.144;14.118;2023-02-16T11:12:26;1.80;99.90
8332;DHT22;4203;48.144;14.118;2023-02-16T11:14:56;1.60;99.90
8332;DHT22;4203;48.144;14.118;2023-02-16T11:17:25;1.70;99.90
8332;DHT22;4203;48.144;14.118;2023-02-16T11:19:57;1.80;99.90
8332;DHT22;4203;48.144;14.118;2023-02-16T11:22:28;2.10;99.90
8332;DHT22;4203;48.144;14.118;2023-02-16T11:25:02;2.30;99.90
8332;DHT22;4203;48.144;14.118;2023-02-16T11:27:49;2.30;99.90
8332;DHT22;4203;48.144;14.118;2023-02-16T11:30:21;2.40;99.90
8332;DHT22;4203;48.144;14.118;2023-02-16T11:32:54;2.30;99.90
8332;DHT22;4203;48.144;14.118;2023-02-16T11:35:23;2.20;99.90
8332;DHT22;4203;48.144;14.118;2023-02-16T11:37:50;2.40;99.90
8332;DHT22;4203;48.144;14.118;2023-02-16T11:40:21;2.40;99.90
8332;DHT22;4203;48.144;14.118;2023-02-16T11:42:50;2.50;99.90
8332;DHT22;4203;48.144;14.118;2023-02-16T11:45:25;2.60;99.90
8332;DHT22;4203;48.144;14.118;2023-02-16T11:47:54;2.70;99.90
8332;DHT22;4203;48.144;14.118;2023-02-16T11:50:26;2.70;99.90
8332;DHT22;4203;48.144;14.118;2023-02-16T11:52:56;2.70;99.90
8332;DHT22;4203;48.144;14.118;2023-02-16T11:55:28;2.80;99.90
8332;DHT22;4203;48.144;14.118;2023-02-16T11:58:14;2.90;99.90
8332;DHT22;4203;48.144;14.118;2023-02-16T12:00:51;2.90;99.90
8332;DHT22;4203;48.144;14.118;2023-02-16T12:03:43;2.80;99.90
8332;DHT22;4203;48.144;14.118;2023-02-16T12:06:27;2.80;99.90
8332;DHT22;4203;48.144;14.118;2023-02-16T12:09:17;3.00;99.90
8332;DHT22;4203;48.144;14.118;2023-02-16T12:11:56;3.00;99.90
8332;DHT22;4203;48.144;14.118;2023-02-16T12:17:40;3.30;99.90
8332;DHT22;4203;48.144;14.118;2023-02-16T12:20:33;3.50;99.90
8332;DHT22;4203;48.144;14.118;2023-02-16T12:23:21;3.40;99.90
8332;DHT22;4203;48.144;14.118;2023-02-16T12:26:02;4.60;99.90
8332;DHT22;4203;48.144;14.118;2023-02-16T12:28:44;3.10;99.90
8332;DHT22;4203;48.144;14.118;2023-02-16T12:31:23;2.90;99.90
8332;DHT22;4203;48.144;14.118;2023-02-16T12:34:03;2.70;99.90
8332;DHT22;4203;48.144;14.118;2023-02-16T12:36:45;3.40;99.90
8332;DHT22;4203;48.144;14.118;2023-02-16T12:39:28;4.20;99.90
8332;DHT22;4203;48.144;14.118;2023-02-16T12:42:07;5.10;99.90
8332;DHT22;4203;48.144;14.118;2023-02-16T12:44:42;5.50;99.90
8332;DHT22;4203;48.144;14.118;2023-02-16T12:47:18;5.80;99.90
8332;DHT22;4203;48.144;14.118;2023-02-16T12:49:52;5.90;99.90
8332;DHT22;4203;48.144;14.118;2023-02-16T12:52:29;5.80;99.90
8332;DHT22;4203;48.144;14.118;2023-02-16T12:55:14;6.00;99.90
8332;DHT22;4203;48.144;14.118;2023-02-16T12:57:57;5.80;99.90
8332;DHT22;4203;48.144;14.118;2023-02-16T13:00:40;6.20;99.90
8332;DHT22;4203;48.144;14.118;2023-02-16T13:03:23;6.90;99.90
8332;DHT22;4203;48.144;14.118;2023-02-16T13:05:59;7.60;99.90
8332;DHT22;4203;48.144;14.118;2023-02-16T13:08:33;8.30;99.90
8332;DHT22;4203;48.144;14.118;2023-02-16T13:11:10;8.70;99.90
8332;DHT22;4203;48.144;14.118;2023-02-16T13:13:40;9.30;99.90
8332;DHT22;4203;48.144;14.118;2023-02-16T13:16:13;10.00;99.90
8332;DHT22;4203;48.144;14.118;2023-02-16T13:18:43;10.90;99.90
8332;DHT22;4203;48.144;14.118;2023-02-16T13:21:21;11.50;99.90
8332;DHT22;4203;48.144;14.118;2023-02-16T13:24:00;11.20;99.90
8332;DHT22;4203;48.144;14.118;2023-02-16T13:26:41;10.60;99.90
8332;DHT22;4203;48.144;14.118;2023-02-16T13:35:35;10.00;99.90
8332;DHT22;4203;48.144;14.118;2023-02-16T13:38:30;10.20;99.90
8332;DHT22;4203;48.144;14.118;2023-02-16T13:43:55;11.50;99.90
8332;DHT22;4203;48.144;14.118;2023-02-16T13:46:26;12.10;99.90
8332;DHT22;4203;48.144;14.118;2023-02-16T13:48:55;12.80;99.90
8332;DHT22;4203;48.144;14.118;2023-02-16T13:51:25;13.40;99.90
8332;DHT22;4203;48.144;14.118;2023-02-16T13:53:56;13.80;99.90
8332;DHT22;4203;48.144;14.118;2023-02-16T13:56:33;14.10;99.90
8332;DHT22;4203;48.144;14.118;2023-02-16T14:02:10;15.10;99.00
8332;DHT22;4203;48.144;14.118;2023-02-16T14:05:09;15.00;98.30
8332;DHT22;4203;48.144;14.118;2023-02-16T14:07:38;15.00;96.10
8332;DHT22;4203;48.144;14.118;2023-02-16T14:10:07;14.90;97.00
8332;DHT22;4203;48.144;14.118;2023-02-16T14:12:40;14.90;98.30
8332;DHT22;4203;48.144;14.118;2023-02-16T14:15:17;14.60;97.60
8332;DHT22;4203;48.144;14.118;2023-02-16T14:17:47;14.10;96.00
8332;DHT22;4203;48.144;14.118;2023-02-16T14:20:28;13.30;98.60
8332;DHT22;4203;48.144;14.118;2023-02-16T14:22:57;12.70;99.90
8332;DHT22;4203;48.144;14.118;2023-02-16T14:25:37;12.00;99.90
8332;DHT22;4203;48.144;14.118;2023-02-16T14:31:40;10.40;99.90
8332;DHT22;4203;48.144;14.118;2023-02-16T14:34:16;10.40;99.90
8332;DHT22;4203;48.144;14.118;2023-02-16T14:37:19;10.30;99.90
8332;DHT22;4203;48.144;14.118;2023-02-16T14:39:53;9.60;99.90
8332;DHT22;4203;48.144;14.118;2023-02-16T14:42:28;8.20;99.90
8332;DHT22;4203;48.144;14.118;2023-02-16T14:45:16;6.90;99.90
8332;DHT22;4203;48.144;14.118;2023-02-16T14:47:56;5.90;99.90
8332;DHT22;4203;48.144;14.118;2023-02-16T14:50:33;5.20;99.90
8332;DHT22;4203;48.144;14.118;2023-02-16T14:53:21;4.90;99.90
8332;DHT22;4203;48.144;14.118;2023-02-16T14:56:07;4.80;99.90
8332;DHT22;4203;48.144;14.118;2023-02-16T14:58:45;4.60;99.90
8332;DHT22;4203;48.144;14.118;2023-02-16T15:01:18;4.70;99.90
8332;DHT22;4203;48.144;14.118;2023-02-16T15:03:47;4.90;99.90
8332;DHT22;4203;48.144;14.118;2023-02-16T15:06:24;5.10;99.90
8332;DHT22;4203;48.144;14.118;2023-02-16T15:08:56;5.10;99.90
8332;DHT22;4203;48.144;14.118;2023-02-16T15:11:29;5.10;99.90
8332;DHT22;4203;48.144;14.118;2023-02-16T15:14:03;4.90;99.90
8332;DHT22;4203;48.144;14.118;2023-02-16T15:16:32;4.70;99.90
8332;DHT22;4203;48.144;14.118;2023-02-16T15:19:07;4.70;99.90
8332;DHT22;4203;48.144;14.118;2023-02-16T15:21:36;4.60;99.90
8332;DHT22;4203;48.144;14.118;2023-02-16T15:24:04;4.60;99.90
8332;DHT22;4203;48.144;14.118;2023-02-16T15:26:34;4.50;99.90
8332;DHT22;4203;48.144;14.118;2023-02-16T15:29:20;4.40;99.90
8332;DHT22;4203;48.144;14.118;2023-02-16T15:31:48;4.30;99.90
8332;DHT22;4203;48.144;14.118;2023-02-16T15:34:26;4.30;99.90
8332;DHT22;4203;48.144;14.118;2023-02-16T15:36:56;4.20;99.90
8332;DHT22;4203;48.144;14.118;2023-02-16T15:39:28;4.10;99.90
8332;DHT22;4203;48.144;14.118;2023-02-16T15:42:15;4.10;99.90
8332;DHT22;4203;48.144;14.118;2023-02-16T15:44:44;4.00;99.90
8332;DHT22;4203;48.144;14.118;2023-02-16T15:47:14;3.90;99.90
8332;DHT22;4203;48.144;14.118;2023-02-16T15:49:43;3.80;99.90
8332;DHT22;4203;48.144;14.118;2023-02-16T15:52:15;3.70;99.90
8332;DHT22;4203;48.144;14.118;2023-02-16T15:54:44;3.50;99.90
8332;DHT22;4203;48.144;14.118;2023-02-16T15:57:18;3.40;99.90
8332;DHT22;4203;48.144;14.118;2023-02-16T15:59:47;3.30;99.90
8332;DHT22;4203;48.144;14.118;2023-02-16T16:02:18;3.10;99.90
8332;DHT22;4203;48.144;14.118;2023-02-16T16:04:48;3.00;99.90
8332;DHT22;4203;48.144;14.118;2023-02-16T16:07:25;2.90;99.90
8332;DHT22;4203;48.144;14.118;2023-02-16T16:09:53;2.70;99.90
8332;DHT22;4203;48.144;14.118;2023-02-16T16:12:22;2.50;99.90
8332;DHT22;4203;48.144;14.118;2023-02-16T16:14:53;2.30;99.90
8332;DHT22;4203;48.144;14.118;2023-02-16T16:17:25;2.20;99.90
8332;DHT22;4203;48.144;14.118;2023-02-16T16:19:55;2.20;99.90
8332;DHT22;4203;48.144;14.118;2023-02-16T16:22:37;2.10;99.90
8332;DHT22;4203;48.144;14.118;2023-02-16T16:25:29;2.00;99.90
8332;DHT22;4203;48.144;14.118;2023-02-16T16:28:05;1.90;99.90
8332;DHT22;4203;48.144;14.118;2023-02-16T16:30:36;1.60;99.90
8332;DHT22;4203;48.144;14.118;2023-02-16T16:33:11;2.60;99.90
8332;DHT22;4203;48.144;14.118;2023-02-16T16:35:41;1.50;99.90
8332;DHT22;4203;48.144;14.118;2023-02-16T16:38:23;1.50;99.90
8332;DHT22;4203;48.144;14.118;2023-02-16T16:40:54;1.40;99.90
8332;DHT22;4203;48.144;14.118;2023-02-16T16:43:27;1.30;99.90
8332;DHT22;4203;48.144;14.118;2023-02-16T16:46:09;0.80;99.90
8332;DHT22;4203;48.144;14.118;2023-02-16T16:48:42;2.00;99.90